createdAt,value
2016-08-08T00:01:09.604Z,22
2016-08-08T00:02:22.575Z,21.97
2016-08-08T00:03:35.548Z,21.94
2016-08-08T00:04:48.526Z,21.89
2016-08-08T00:06:01.497Z,21.85
2016-08-08T00:07:14.476Z,21.96
2016-08-08T00:08:27.445Z,21.9
2016-08-08T00:09:40.617Z,21.85
2016-08-08T00:10:53.599Z,21.85
2016-08-08T00:12:06.576Z,21.83
2016-08-08T00:13:19.563Z,21.9
2016-08-08T00:14:32.540Z,21.89
2016-08-08T00:15:45.923Z,21.8
2016-08-08T00:16:58.908Z,21.73
2016-08-08T00:18:11.883Z,21.78
2016-08-08T00:19:25.060Z,21.85
2016-08-08T00:20:38.040Z,21.85
2016-08-08T00:21:51.227Z,21.76
2016-08-08T00:23:04.206Z,21.77
2016-08-08T00:24:17.178Z,21.77
2016-08-08T00:25:30.351Z,21.8
2016-08-08T00:27:54.907Z,21.86
2016-08-08T00:29:07.872Z,21.77
2016-08-08T00:30:20.841Z,21.73
2016-08-08T00:31:33.812Z,21.68
2016-08-08T00:32:46.787Z,21.73
2016-08-08T00:33:59.960Z,21.67
2016-08-08T00:35:12.929Z,21.74
2016-08-08T00:36:26.302Z,21.74
2016-08-08T00:37:39.272Z,21.73
2016-08-08T00:38:52.265Z,21.61
2016-08-08T00:40:05.440Z,21.71
2016-08-08T00:41:18.406Z,21.58
2016-08-08T00:42:31.375Z,21.58
2016-08-08T00:43:44.352Z,21.55
2016-08-08T00:44:57.339Z,21.55
2016-08-08T00:46:10.326Z,21.55
2016-08-08T00:47:23.292Z,21.52
2016-08-08T00:48:36.272Z,21.48
2016-08-08T00:49:49.247Z,21.4
2016-08-08T00:51:02.223Z,21.52
2016-08-08T00:52:15.181Z,21.46
2016-08-08T00:53:28.160Z,21.38
2016-08-08T00:54:41.539Z,21.48
2016-08-08T00:55:54.520Z,21.38
2016-08-08T00:57:07.495Z,21.34
2016-08-08T00:58:20.473Z,21.34
2016-08-08T00:59:33.454Z,21.46
2016-08-08T01:00:46.425Z,21.34
2016-08-08T01:01:59.610Z,21.4
2016-08-08T01:03:12.590Z,21.4
2016-08-08T01:04:25.562Z,21.38
2016-08-08T01:05:38.540Z,21.34
2016-08-08T01:06:51.518Z,21.36
2016-08-08T01:08:04.493Z,21.37
2016-08-08T01:09:17.474Z,21.36
2016-08-08T01:10:30.454Z,21.33
2016-08-08T01:12:55.029Z,21.23
2016-08-08T01:14:08.198Z,21.27
2016-08-08T01:15:21.164Z,21.21
2016-08-08T01:16:34.136Z,21.31
2016-08-08T01:17:47.118Z,21.15
2016-08-08T01:19:00.294Z,21.27
2016-08-08T01:20:13.274Z,21.25
2016-08-08T01:21:26.269Z,21.12
2016-08-08T01:22:39.241Z,21.18
2016-08-08T01:23:52.222Z,21.13
2016-08-08T01:25:05.204Z,21.21
2016-08-08T01:26:18.184Z,21.18
2016-08-08T01:27:31.564Z,21.13
2016-08-08T01:28:44.533Z,21.04
2016-08-08T01:29:57.501Z,21.03
2016-08-08T01:31:10.479Z,21.11
2016-08-08T01:32:23.656Z,21.04
2016-08-08T01:33:36.830Z,21.01
2016-08-08T01:34:49.799Z,21.06
2016-08-08T01:36:02.770Z,21.03
2016-08-08T01:37:15.743Z,21.09
2016-08-08T01:38:28.721Z,21.11
2016-08-08T01:39:41.693Z,21.08
2016-08-08T01:40:54.677Z,21.01
2016-08-08T01:42:07.652Z,21.06
2016-08-08T01:43:20.619Z,21.01
2016-08-08T01:44:33.588Z,21.03
2016-08-08T01:45:46.562Z,20.98
2016-08-08T01:46:59.530Z,21.04
2016-08-08T01:48:12.509Z,21.03
2016-08-08T01:49:25.478Z,21.08
2016-08-08T01:50:38.460Z,21
2016-08-08T01:51:51.640Z,21.04
2016-08-08T01:53:04.623Z,20.94
2016-08-08T01:54:17.803Z,20.93
2016-08-08T01:55:30.774Z,20.9
2016-08-08T01:56:43.744Z,20.83
2016-08-08T01:57:56.462Z,20.96
2016-08-08T01:59:09.432Z,20.78
2016-08-08T02:00:22.401Z,20.76
2016-08-08T02:01:35.374Z,20.79
2016-08-08T02:02:48.356Z,20.75
2016-08-08T02:04:01.327Z,20.81
2016-08-08T02:05:14.303Z,20.81
2016-08-08T02:06:27.268Z,20.79
2016-08-08T02:07:40.243Z,20.75
2016-08-08T02:08:53.218Z,20.75
2016-08-08T02:10:06.194Z,20.85
2016-08-08T02:11:19.167Z,20.79
2016-08-08T02:12:32.337Z,20.83
2016-08-08T02:13:45.306Z,20.81
2016-08-08T02:14:58.289Z,20.82
2016-08-08T02:16:11.270Z,20.82
2016-08-08T02:17:24.257Z,20.78
2016-08-08T02:18:37.238Z,20.81
2016-08-08T02:19:50.234Z,20.74
2016-08-08T02:21:03.203Z,20.71
2016-08-08T02:22:16.170Z,20.75
2016-08-08T02:23:29.143Z,20.72
2016-08-08T02:24:42.126Z,20.66
2016-08-08T02:25:55.101Z,20.64
2016-08-08T02:27:07.607Z,20.58
2016-08-08T02:28:20.581Z,20.58
2016-08-08T02:29:33.760Z,20.56
2016-08-08T02:30:46.729Z,20.51
2016-08-08T02:31:59.714Z,20.53
2016-08-08T02:33:12.694Z,20.57
2016-08-08T02:34:25.861Z,20.41
2016-08-08T02:35:38.828Z,20.44
2016-08-08T02:36:51.813Z,20.38
2016-08-08T02:38:04.789Z,20.41
2016-08-08T02:39:17.752Z,20.41
2016-08-08T02:40:30.717Z,20.34
2016-08-08T02:41:43.685Z,20.38
2016-08-08T02:42:56.660Z,20.27
2016-08-08T02:44:09.627Z,20.32
2016-08-08T02:45:22.624Z,20.32
2016-08-08T02:46:35.595Z,20.34
2016-08-08T02:47:48.568Z,20.34
2016-08-08T02:49:01.546Z,20.27
2016-08-08T02:50:14.526Z,20.2
2016-08-08T02:51:27.714Z,20.18
2016-08-08T02:52:40.693Z,20.16
2016-08-08T02:53:53.650Z,20.12
2016-08-08T02:55:06.622Z,20.2
2016-08-08T02:56:19.795Z,20.15
2016-08-08T02:57:32.761Z,20.07
2016-08-08T02:58:45.746Z,20.01
2016-08-08T02:59:58.724Z,20
2016-08-08T03:01:11.704Z,20.01
2016-08-08T03:02:24.673Z,20.02
2016-08-08T03:03:37.652Z,19.95
2016-08-08T03:04:50.632Z,19.86
2016-08-08T03:06:03.607Z,19.9
2016-08-08T03:07:16.579Z,19.98
2016-08-08T03:08:29.550Z,20.02
2016-08-08T03:09:42.517Z,19.85
2016-08-08T03:10:55.485Z,19.8
2016-08-08T03:12:08.460Z,19.78
2016-08-08T03:13:20.972Z,19.83
2016-08-08T03:14:33.950Z,19.79
2016-08-08T03:15:46.941Z,19.8
2016-08-08T03:16:59.919Z,19.8
2016-08-08T03:18:12.887Z,19.8
2016-08-08T03:19:25.854Z,19.74
2016-08-08T03:20:38.818Z,19.78
2016-08-08T03:21:51.795Z,19.68
2016-08-08T03:23:04.762Z,19.75
2016-08-08T03:24:17.736Z,19.55
2016-08-08T03:25:30.902Z,19.63
2016-08-08T03:26:43.887Z,19.67
2016-08-08T03:27:56.850Z,19.67
2016-08-08T03:29:09.828Z,19.57
2016-08-08T03:30:23.005Z,19.6
2016-08-08T03:31:36.002Z,19.49
2016-08-08T03:32:48.974Z,19.47
2016-08-08T03:34:01.934Z,19.55
2016-08-08T03:35:14.918Z,19.55
2016-08-08T03:36:28.100Z,19.4
2016-08-08T03:37:41.069Z,19.46
2016-08-08T03:38:54.051Z,19.37
2016-08-08T03:40:07.233Z,19.4
2016-08-08T03:41:20.202Z,19.4
2016-08-08T03:42:32.251Z,19.34
2016-08-08T03:43:45.229Z,19.4
2016-08-08T03:44:58.428Z,19.43
2016-08-08T03:46:11.414Z,19.47
2016-08-08T03:47:24.392Z,19.32
2016-08-08T03:48:37.763Z,19.35
2016-08-08T03:49:50.751Z,19.34
2016-08-08T03:51:03.917Z,19.35
2016-08-08T03:52:17.092Z,19.32
2016-08-08T03:53:30.265Z,19.3
2016-08-08T03:54:43.843Z,19.25
2016-08-08T03:55:56.811Z,19.31
2016-08-08T03:57:09.782Z,19.27
2016-08-08T03:58:22.760Z,19.25
2016-08-08T03:59:35.741Z,19.31
2016-08-08T04:00:48.908Z,19.25
2016-08-08T04:02:02.482Z,19.23
2016-08-08T04:03:15.453Z,19.25
2016-08-08T04:04:28.430Z,19.27
2016-08-08T04:05:41.407Z,19.27
2016-08-08T04:06:54.381Z,19.23
2016-08-08T04:08:07.368Z,19.24
2016-08-08T04:09:20.544Z,19.2
2016-08-08T04:10:33.520Z,19.07
2016-08-08T04:11:46.491Z,19.13
2016-08-08T04:12:59.656Z,19.15
2016-08-08T04:14:12.619Z,19.16
2016-08-08T04:15:25.600Z,19.13
2016-08-08T04:16:38.584Z,19.09
2016-08-08T04:17:51.557Z,19.07
2016-08-08T04:19:04.522Z,18.96
2016-08-08T04:20:17.497Z,19.07
2016-08-08T04:21:30.477Z,19.02
2016-08-08T04:22:43.447Z,19.09
2016-08-08T04:23:56.422Z,18.99
2016-08-08T04:25:09.398Z,18.96
2016-08-08T04:26:22.379Z,18.99
2016-08-08T04:28:47.333Z,18.99
2016-08-08T04:30:00.303Z,18.93
2016-08-08T04:31:13.279Z,18.91
2016-08-08T04:32:26.251Z,18.91
2016-08-08T04:33:39.243Z,18.97
2016-08-08T04:34:52.221Z,18.9
2016-08-08T04:36:05.405Z,18.89
2016-08-08T04:37:18.403Z,18.81
2016-08-08T04:38:31.367Z,18.9
2016-08-08T04:39:44.342Z,18.94
2016-08-08T04:40:57.318Z,18.94
2016-08-08T04:42:10.289Z,18.91
2016-08-08T04:43:23.272Z,18.9
2016-08-08T04:44:36.244Z,18.91
2016-08-08T04:45:49.220Z,18.79
2016-08-08T04:47:02.407Z,18.81
2016-08-08T04:48:15.378Z,18.81
2016-08-08T04:49:28.356Z,18.89
2016-08-08T04:50:41.322Z,18.87
2016-08-08T04:51:54.300Z,18.89
2016-08-08T04:53:07.471Z,18.9
2016-08-08T04:54:20.445Z,18.93
2016-08-08T04:55:33.413Z,18.91
2016-08-08T04:56:46.376Z,18.99
2016-08-08T04:57:59.355Z,18.86
2016-08-08T04:59:12.322Z,18.9
2016-08-08T05:00:25.307Z,19.02
2016-08-08T05:01:38.280Z,19.02
2016-08-08T05:02:51.244Z,19.1
2016-08-08T05:04:04.418Z,19.12
2016-08-08T05:05:17.584Z,19.12
2016-08-08T05:06:30.570Z,19.15
2016-08-08T05:07:43.556Z,19.16
2016-08-08T05:08:56.544Z,19.2
2016-08-08T05:10:09.712Z,19.25
2016-08-08T05:11:22.691Z,19.32
2016-08-08T05:13:46.789Z,19.23
2016-08-08T05:14:59.763Z,19.25
2016-08-08T05:16:12.735Z,19.23
2016-08-08T05:17:25.702Z,19.25
2016-08-08T05:18:38.684Z,19.23
2016-08-08T05:19:51.655Z,19.19
2016-08-08T05:21:04.631Z,19.23
2016-08-08T05:22:17.612Z,19.23
2016-08-08T05:23:30.588Z,19.27
2016-08-08T05:24:43.764Z,19.27
2016-08-08T05:25:56.749Z,19.24
2016-08-08T05:27:09.918Z,19.2
2016-08-08T05:28:22.893Z,19.28
2016-08-08T05:29:35.862Z,19.28
2016-08-08T05:30:48.827Z,19.35
2016-08-08T05:32:01.998Z,19.35
2016-08-08T05:33:15.176Z,19.38
2016-08-08T05:34:28.150Z,19.37
2016-08-08T05:35:41.327Z,19.4
2016-08-08T05:36:54.293Z,19.43
2016-08-08T05:38:07.464Z,19.42
2016-08-08T05:39:20.637Z,19.49
2016-08-08T05:40:33.612Z,19.45
2016-08-08T05:41:46.586Z,19.46
2016-08-08T05:42:59.764Z,19.49
2016-08-08T05:44:12.756Z,19.57
2016-08-08T05:45:25.929Z,19.55
2016-08-08T05:46:38.897Z,19.55
2016-08-08T05:47:51.870Z,19.7
2016-08-08T05:49:04.852Z,19.7
2016-08-08T05:50:17.826Z,19.64
2016-08-08T05:51:30.801Z,19.63
2016-08-08T05:52:43.773Z,19.68
2016-08-08T05:53:56.746Z,19.67
2016-08-08T05:55:09.715Z,19.82
2016-08-08T05:56:22.683Z,19.75
2016-08-08T05:57:35.667Z,19.92
2016-08-08T05:58:48.636Z,19.86
2016-08-08T06:00:01.616Z,19.87
2016-08-08T06:01:14.786Z,19.98
2016-08-08T06:02:27.760Z,19.89
2016-08-08T06:03:40.732Z,19.95
2016-08-08T06:04:53.703Z,19.97
2016-08-08T06:06:06.677Z,19.87
2016-08-08T06:07:19.640Z,19.85
2016-08-08T06:08:32.611Z,19.95
2016-08-08T06:09:45.582Z,19.9
2016-08-08T06:10:58.608Z,19.89
2016-08-08T06:12:11.585Z,19.86
2016-08-08T06:13:24.572Z,19.83
2016-08-08T06:14:37.557Z,19.83
2016-08-08T06:15:50.542Z,19.72
2016-08-08T06:17:03.514Z,19.8
2016-08-08T06:18:16.699Z,19.8
2016-08-08T06:19:29.681Z,19.78
2016-08-08T06:20:42.660Z,19.75
2016-08-08T06:21:55.630Z,19.68
2016-08-08T06:23:08.605Z,19.75
2016-08-08T06:24:21.787Z,19.71
2016-08-08T06:25:34.758Z,19.68
2016-08-08T06:26:47.735Z,19.67
2016-08-08T06:27:59.773Z,19.61
2016-08-08T06:29:12.742Z,19.56
2016-08-08T06:30:25.718Z,19.53
2016-08-08T06:31:38.693Z,19.53
2016-08-08T06:32:51.885Z,19.61
2016-08-08T06:34:04.854Z,19.49
2016-08-08T06:35:17.843Z,19.55
2016-08-08T06:36:30.809Z,19.49
2016-08-08T06:37:43.772Z,19.47
2016-08-08T06:38:56.736Z,19.45
2016-08-08T06:40:09.714Z,19.45
2016-08-08T06:41:22.670Z,19.43
2016-08-08T06:42:35.641Z,19.47
2016-08-08T06:43:48.821Z,19.4
2016-08-08T06:45:01.790Z,19.34
2016-08-08T06:46:14.771Z,19.4
2016-08-08T06:47:27.743Z,19.38
2016-08-08T06:48:40.724Z,19.35
2016-08-08T06:49:53.690Z,19.35
2016-08-08T06:51:06.674Z,19.42
2016-08-08T06:52:19.641Z,19.42
2016-08-08T06:53:32.618Z,19.34
2016-08-08T06:54:45.592Z,19.24
2016-08-08T06:55:58.555Z,19.28
2016-08-08T06:57:11.544Z,19.27
2016-08-08T06:58:24.523Z,19.23
2016-08-08T06:59:37.493Z,19.28
2016-08-08T07:00:50.676Z,19.25
2016-08-08T07:02:03.648Z,19.31
2016-08-08T07:03:16.625Z,19.34
2016-08-08T07:04:29.807Z,19.42
2016-08-08T07:05:42.773Z,19.35
2016-08-08T07:06:55.752Z,19.42
2016-08-08T07:08:08.736Z,19.47
2016-08-08T07:09:21.700Z,19.47
2016-08-08T07:10:34.676Z,19.4
2016-08-08T07:11:47.647Z,19.38
2016-08-08T07:14:12.204Z,19.37
2016-08-08T07:15:25.180Z,19.45
2016-08-08T07:16:38.166Z,19.46
2016-08-08T07:17:51.165Z,19.49
2016-08-08T07:19:04.159Z,19.52
2016-08-08T07:20:17.351Z,19.56
2016-08-08T07:21:30.526Z,19.56
2016-08-08T07:22:43.500Z,19.57
2016-08-08T07:23:56.477Z,19.56
2016-08-08T07:25:09.646Z,19.7
2016-08-08T07:26:22.612Z,19.67
2016-08-08T07:27:35.796Z,19.71
2016-08-08T07:28:48.779Z,19.67
2016-08-08T07:30:01.769Z,19.75
2016-08-08T07:31:14.740Z,19.85
2016-08-08T07:32:27.713Z,19.75
2016-08-08T07:33:40.708Z,19.92
2016-08-08T07:34:53.681Z,19.86
2016-08-08T07:36:06.649Z,19.89
2016-08-08T07:37:19.628Z,19.8
2016-08-08T07:38:32.800Z,19.85
2016-08-08T07:39:45.786Z,19.83
2016-08-08T07:40:58.761Z,19.7
2016-08-08T07:42:11.937Z,19.78
2016-08-08T07:44:36.244Z,19.83
2016-08-08T07:45:49.213Z,19.83
2016-08-08T07:47:02.191Z,19.86
2016-08-08T07:48:15.170Z,19.85
2016-08-08T07:49:28.151Z,19.71
2016-08-08T07:50:41.135Z,19.9
2016-08-08T07:51:54.113Z,19.74
2016-08-08T07:53:07.089Z,19.83
2016-08-08T07:54:20.063Z,19.85
2016-08-08T07:55:33.039Z,19.79
2016-08-08T07:56:46.014Z,19.83
2016-08-08T07:57:58.987Z,19.83
2016-08-08T07:59:11.959Z,19.82
2016-08-08T08:00:24.981Z,19.83
2016-08-08T08:01:38.358Z,19.79
2016-08-08T08:02:51.530Z,19.78
2016-08-08T08:04:04.509Z,19.75
2016-08-08T08:05:17.479Z,19.7
2016-08-08T08:06:30.446Z,19.82
2016-08-08T08:07:43.420Z,19.79
2016-08-08T08:08:56.404Z,19.75
2016-08-08T08:10:09.384Z,19.68
2016-08-08T08:11:22.362Z,19.78
2016-08-08T08:12:35.342Z,19.67
2016-08-08T08:13:48.319Z,19.68
2016-08-08T08:15:01.302Z,19.64
2016-08-08T08:16:14.491Z,19.68
2016-08-08T08:17:27.472Z,19.61
2016-08-08T08:18:40.642Z,19.7
2016-08-08T08:19:53.616Z,19.64
2016-08-08T08:21:06.598Z,19.63
2016-08-08T08:22:19.569Z,19.68
2016-08-08T08:23:32.740Z,19.6
2016-08-08T08:24:45.923Z,19.63
2016-08-08T08:25:59.045Z,19.61
2016-08-08T08:27:12.022Z,19.67
2016-08-08T08:29:36.122Z,19.78
2016-08-08T08:30:49.292Z,19.8
2016-08-08T08:32:02.474Z,19.97
2016-08-08T08:33:15.447Z,19.95
2016-08-08T08:34:28.627Z,20.05
2016-08-08T08:35:41.803Z,20.07
2016-08-08T08:36:54.787Z,20.1
2016-08-08T08:38:07.764Z,20.07
2016-08-08T08:39:20.953Z,20.02
2016-08-08T08:40:33.933Z,19.93
2016-08-08T08:41:46.919Z,19.95
2016-08-08T08:42:59.891Z,20
2016-08-08T08:44:13.267Z,19.92
2016-08-08T08:45:26.241Z,19.93
2016-08-08T08:46:39.209Z,19.95
2016-08-08T08:47:52.179Z,19.92
2016-08-08T08:49:05.162Z,20.15
2016-08-08T08:50:18.140Z,20.16
2016-08-08T08:51:31.117Z,20.27
2016-08-08T08:52:44.106Z,20.25
2016-08-08T08:53:57.284Z,20.3
2016-08-08T08:55:10.259Z,20.38
2016-08-08T08:56:23.237Z,20.41
2016-08-08T08:57:36.417Z,20.41
2016-08-08T08:58:49.396Z,20.42
2016-08-08T09:00:02.379Z,20.48
2016-08-08T09:01:15.367Z,20.44
2016-08-08T09:02:28.342Z,20.41
2016-08-08T09:03:41.318Z,20.53
2016-08-08T09:04:54.292Z,20.57
2016-08-08T09:06:07.477Z,20.53
2016-08-08T09:07:20.463Z,20.53
2016-08-08T09:08:33.443Z,20.51
2016-08-08T09:09:46.609Z,20.54
2016-08-08T09:10:59.593Z,20.72
2016-08-08T09:12:12.622Z,20.72
2016-08-08T09:14:36.728Z,20.75
2016-08-08T09:15:49.715Z,20.88
2016-08-08T09:17:02.690Z,20.98
2016-08-08T09:18:15.680Z,21.23
2016-08-08T09:19:28.658Z,21.46
2016-08-08T09:20:41.647Z,21.51
2016-08-08T09:21:54.631Z,21.53
2016-08-08T09:23:07.613Z,21.53
2016-08-08T09:24:20.594Z,21.52
2016-08-08T09:25:33.572Z,21.48
2016-08-08T09:26:46.547Z,21.33
2016-08-08T09:27:59.530Z,21.28
2016-08-08T09:29:12.506Z,21.34
2016-08-08T09:30:25.484Z,21.31
2016-08-08T09:31:38.476Z,21.37
2016-08-08T09:32:51.452Z,21.49
2016-08-08T09:34:04.436Z,21.53
2016-08-08T09:35:17.417Z,21.43
2016-08-08T09:36:30.395Z,21.41
2016-08-08T09:37:43.778Z,21.31
2016-08-08T09:38:56.758Z,21.13
2016-08-08T09:40:09.730Z,21.08
2016-08-08T09:41:22.702Z,21.06
2016-08-08T09:42:35.681Z,20.9
2016-08-08T09:43:48.663Z,20.9
2016-08-08T09:45:01.649Z,20.81
2016-08-08T09:46:14.832Z,20.68
2016-08-08T09:47:28.011Z,20.74
2016-08-08T09:48:40.983Z,20.57
2016-08-08T09:49:53.960Z,20.57
2016-08-08T09:51:06.934Z,20.6
2016-08-08T09:52:20.103Z,20.58
2016-08-08T09:53:33.082Z,20.44
2016-08-08T09:54:46.054Z,20.42
2016-08-08T09:55:59.236Z,20.37
2016-08-08T09:57:12.201Z,20.4
2016-08-08T09:59:36.757Z,20.34
2016-08-08T10:00:49.732Z,20.37
2016-08-08T10:02:02.696Z,20.26
2016-08-08T10:03:15.685Z,20.23
2016-08-08T10:04:28.858Z,20.16
2016-08-08T10:05:41.856Z,20.08
2016-08-08T10:06:54.829Z,20.15
2016-08-08T10:08:07.822Z,20.15
2016-08-08T10:09:20.994Z,20.15
2016-08-08T10:10:33.975Z,20.07
2016-08-08T10:11:46.954Z,20.11
2016-08-08T10:12:59.938Z,20.08
2016-08-08T10:14:13.115Z,20.01
2016-08-08T10:15:26.084Z,20
2016-08-08T10:16:39.058Z,20.07
2016-08-08T10:17:52.036Z,19.98
2016-08-08T10:19:05.007Z,19.98
2016-08-08T10:20:17.992Z,19.95
2016-08-08T10:21:30.980Z,20
2016-08-08T10:22:43.957Z,19.92
2016-08-08T10:23:56.941Z,19.95
2016-08-08T10:25:10.123Z,19.87
2016-08-08T10:26:23.506Z,20
2016-08-08T10:27:36.702Z,19.97
2016-08-08T10:28:49.882Z,20
2016-08-08T10:30:02.865Z,19.9
2016-08-08T10:31:16.045Z,19.89
2016-08-08T10:32:29.018Z,20.05
2016-08-08T10:33:41.998Z,20.08
2016-08-08T10:34:54.974Z,20.01
2016-08-08T10:36:07.975Z,20.02
2016-08-08T10:37:20.948Z,19.97
2016-08-08T10:38:33.913Z,20.1
2016-08-08T10:39:46.888Z,20.08
2016-08-08T10:40:59.858Z,19.98
2016-08-08T10:42:12.841Z,19.92
2016-08-08T10:43:25.832Z,19.9
2016-08-08T10:44:38.352Z,19.97
2016-08-08T10:45:51.335Z,19.98
2016-08-08T10:47:04.320Z,20
2016-08-08T10:48:17.495Z,20.01
2016-08-08T10:49:30.680Z,19.85
2016-08-08T10:50:43.655Z,19.83
2016-08-08T10:51:56.633Z,19.79
2016-08-08T10:53:09.607Z,19.75
2016-08-08T10:54:22.596Z,19.8
2016-08-08T10:55:35.575Z,19.82
2016-08-08T10:56:48.553Z,19.9
2016-08-08T10:58:01.524Z,19.85
2016-08-08T10:59:14.504Z,19.89
2016-08-08T11:00:27.474Z,19.87
2016-08-08T11:01:40.470Z,19.79
2016-08-08T11:02:53.452Z,19.87
2016-08-08T11:04:06.417Z,19.86
2016-08-08T11:05:19.398Z,19.71
2016-08-08T11:06:32.390Z,19.68
2016-08-08T11:07:45.395Z,19.7
2016-08-08T11:08:58.369Z,19.61
2016-08-08T11:10:11.345Z,19.67
2016-08-08T11:11:24.516Z,19.6
2016-08-08T11:12:37.752Z,19.35
2016-08-08T11:15:01.845Z,19.24
2016-08-08T11:16:15.027Z,19.13
2016-08-08T11:17:28.011Z,19.09
2016-08-08T11:18:40.991Z,19.12
2016-08-08T11:19:53.962Z,18.97
2016-08-08T11:21:06.945Z,18.97
2016-08-08T11:22:19.912Z,18.96
2016-08-08T11:23:32.887Z,18.97
2016-08-08T11:24:45.868Z,19.02
2016-08-08T11:25:58.834Z,18.9
2016-08-08T11:27:11.829Z,18.96
2016-08-08T11:28:24.807Z,18.91
2016-08-08T11:29:37.783Z,18.94
2016-08-08T11:30:50.961Z,18.84
2016-08-08T11:32:04.336Z,18.86
2016-08-08T11:33:17.314Z,18.82
2016-08-08T11:34:30.310Z,18.81
2016-08-08T11:35:43.294Z,18.82
2016-08-08T11:36:56.465Z,18.81
2016-08-08T11:38:09.447Z,18.84
2016-08-08T11:39:22.442Z,18.79
2016-08-08T11:40:35.418Z,18.79
2016-08-08T11:41:48.404Z,18.81
2016-08-08T11:43:01.382Z,18.78
2016-08-08T11:44:14.350Z,18.81
2016-08-08T11:45:27.335Z,18.84
2016-08-08T11:46:40.308Z,18.89
2016-08-08T11:47:53.284Z,18.87
2016-08-08T11:49:06.263Z,18.84
2016-08-08T11:50:19.238Z,18.84
2016-08-08T11:51:32.413Z,18.86
2016-08-08T11:52:45.388Z,18.86
2016-08-08T11:53:58.359Z,18.96
2016-08-08T11:55:11.351Z,18.93
2016-08-08T11:56:24.321Z,18.93
2016-08-08T11:57:37.285Z,18.93
2016-08-08T11:58:50.464Z,18.93
2016-08-08T12:00:03.440Z,18.94
2016-08-08T12:01:16.613Z,18.93
2016-08-08T12:02:29.579Z,18.97
2016-08-08T12:03:42.561Z,18.99
2016-08-08T12:04:55.532Z,18.96
2016-08-08T12:06:08.514Z,18.96
2016-08-08T12:07:21.484Z,18.93
2016-08-08T12:08:34.458Z,18.9
2016-08-08T12:09:47.428Z,18.99
2016-08-08T12:11:00.394Z,19.06
2016-08-08T12:12:13.569Z,18.93
2016-08-08T12:13:26.548Z,18.96
2016-08-08T12:14:39.522Z,18.99
2016-08-08T12:15:52.503Z,18.97
2016-08-08T12:17:05.482Z,19.02
2016-08-08T12:18:18.458Z,18.94
2016-08-08T12:19:31.436Z,19.02
2016-08-08T12:20:44.420Z,18.94
2016-08-08T12:21:57.607Z,18.97
2016-08-08T12:23:10.578Z,19.06
2016-08-08T12:24:23.754Z,19.02
2016-08-08T12:25:36.721Z,18.99
2016-08-08T12:26:49.696Z,19.05
2016-08-08T12:28:02.677Z,19.12
2016-08-08T12:30:26.774Z,19.2
2016-08-08T12:31:39.956Z,19.27
2016-08-08T12:32:53.140Z,19.4
2016-08-08T12:34:06.116Z,19.32
2016-08-08T12:35:19.104Z,19.45
2016-08-08T12:36:32.103Z,19.45
2016-08-08T12:37:45.079Z,19.4
2016-08-08T12:38:58.264Z,19.46
2016-08-08T12:40:11.240Z,19.47
2016-08-08T12:41:24.218Z,19.46
2016-08-08T12:42:37.193Z,19.47
2016-08-08T12:43:50.186Z,19.46
2016-08-08T12:45:03.171Z,19.46
2016-08-08T12:46:16.150Z,19.38
2016-08-08T12:47:29.331Z,19.47
2016-08-08T12:48:42.503Z,19.45
2016-08-08T12:49:55.499Z,19.57
2016-08-08T12:51:08.478Z,19.6
2016-08-08T12:52:21.461Z,19.64
2016-08-08T12:53:34.443Z,20
2016-08-08T12:54:47.426Z,20.25
2016-08-08T12:56:00.407Z,20.49
2016-08-08T12:57:13.586Z,20.66
2016-08-08T12:58:26.562Z,20.81
2016-08-08T12:59:39.538Z,20.96
2016-08-08T13:00:52.511Z,21.06
2016-08-08T13:02:05.492Z,21.19
2016-08-08T13:03:18.464Z,21.33
2016-08-08T13:04:31.444Z,21.52
2016-08-08T13:05:44.429Z,21.62
2016-08-08T13:06:57.417Z,21.71
2016-08-08T13:08:10.395Z,21.78
2016-08-08T13:09:23.372Z,21.86
2016-08-08T13:10:36.353Z,21.9
2016-08-08T13:11:49.741Z,21.83
2016-08-08T13:13:02.744Z,22.07
2016-08-08T13:14:15.727Z,22.04
2016-08-08T13:15:27.782Z,22.08
2016-08-08T13:16:40.759Z,21.99
2016-08-08T13:17:53.944Z,21.82
2016-08-08T13:19:07.123Z,21.8
2016-08-08T13:20:20.108Z,21.67
2016-08-08T13:21:33.289Z,21.73
2016-08-08T13:22:46.278Z,21.61
2016-08-08T13:23:59.257Z,21.56
2016-08-08T13:25:12.241Z,21.43
2016-08-08T13:26:25.242Z,21.41
2016-08-08T13:27:38.423Z,21.37
2016-08-08T13:28:51.397Z,21.4
2016-08-08T13:30:04.581Z,21.45
2016-08-08T13:31:17.769Z,21.41
2016-08-08T13:32:30.753Z,21.53
2016-08-08T13:33:43.739Z,21.49
2016-08-08T13:34:56.714Z,21.53
2016-08-08T13:36:09.898Z,21.71
2016-08-08T13:37:23.091Z,21.73
2016-08-08T13:38:36.072Z,21.9
2016-08-08T13:39:49.050Z,21.97
2016-08-08T13:41:02.018Z,22.02
2016-08-08T13:42:15.213Z,21.94
2016-08-08T13:43:28.591Z,21.93
2016-08-08T13:44:41.589Z,21.9
2016-08-08T13:45:54.568Z,21.99
2016-08-08T13:47:07.554Z,22.15
2016-08-08T13:48:20.535Z,22.31
2016-08-08T13:49:33.516Z,22.26
2016-08-08T13:50:46.700Z,22.2
2016-08-08T13:51:59.680Z,22.23
2016-08-08T13:53:12.664Z,22.27
2016-08-08T13:54:25.637Z,22.31
2016-08-08T13:55:38.613Z,22.39
2016-08-08T13:56:51.600Z,22.48
2016-08-08T13:58:04.578Z,22.69
2016-08-08T13:59:17.592Z,22.76
2016-08-08T14:00:29.639Z,22.88
2016-08-08T14:01:42.617Z,22.92
2016-08-08T14:02:55.589Z,23.1
2016-08-08T14:04:08.578Z,23.22
2016-08-08T14:05:21.763Z,23.28
2016-08-08T14:06:34.749Z,23.29
2016-08-08T14:07:47.735Z,23.29
2016-08-08T14:09:00.720Z,23.4
2016-08-08T14:10:13.702Z,23.41
2016-08-08T14:11:26.677Z,23.45
2016-08-08T14:12:39.664Z,23.47
2016-08-08T14:13:52.645Z,23.4
2016-08-08T14:15:05.824Z,23.47
2016-08-08T14:16:18.808Z,23.59
2016-08-08T14:17:31.794Z,23.63
2016-08-08T14:18:44.777Z,23.72
2016-08-08T14:19:57.956Z,23.81
2016-08-08T14:21:10.953Z,23.84
2016-08-08T14:22:23.941Z,23.92
2016-08-08T14:23:36.919Z,23.85
2016-08-08T14:24:49.896Z,23.72
2016-08-08T14:26:02.878Z,23.48
2016-08-08T14:27:16.075Z,23.29
2016-08-08T14:28:29.053Z,23.18
2016-08-08T14:29:42.032Z,23
2016-08-08T14:30:55.038Z,22.86
2016-08-08T14:32:08.010Z,22.73
2016-08-08T14:33:20.996Z,22.7
2016-08-08T14:34:33.974Z,22.71
2016-08-08T14:35:46.962Z,22.91
2016-08-08T14:36:59.946Z,23.1
2016-08-08T14:38:12.936Z,23.22
2016-08-08T14:39:25.920Z,23.4
2016-08-08T14:40:38.900Z,23.52
2016-08-08T14:41:51.879Z,23.56
2016-08-08T14:43:05.062Z,23.5
2016-08-08T14:44:18.052Z,23.52
2016-08-08T14:45:31.242Z,23.52
2016-08-08T14:46:44.222Z,23.35
2016-08-08T14:47:57.210Z,23.37
2016-08-08T14:49:10.390Z,23.44
2016-08-08T14:50:23.586Z,23.42
2016-08-08T14:51:36.577Z,23.38
2016-08-08T14:52:49.555Z,23.4
2016-08-08T14:54:02.555Z,23.44
2016-08-08T14:55:15.542Z,23.42
2016-08-08T14:56:28.543Z,23.52
2016-08-08T14:57:41.534Z,23.52
2016-08-08T14:58:54.510Z,23.52
2016-08-08T15:00:07.689Z,23.38
2016-08-08T15:01:20.876Z,23.47
2016-08-08T15:02:34.071Z,23.41
2016-08-08T15:03:47.051Z,23.48
2016-08-08T15:05:00.038Z,23.48
2016-08-08T15:06:13.025Z,23.42
2016-08-08T15:07:26.005Z,23.45
2016-08-08T15:08:38.989Z,23.28
2016-08-08T15:09:51.987Z,23.16
2016-08-08T15:11:04.974Z,23.1
2016-08-08T15:12:17.959Z,22.99
2016-08-08T15:13:30.936Z,22.86
2016-08-08T15:15:55.508Z,22.94
2016-08-08T15:17:08.493Z,22.96
2016-08-08T15:18:21.471Z,22.88
2016-08-08T15:19:34.455Z,22.85
2016-08-08T15:20:47.436Z,22.85
2016-08-08T15:22:00.414Z,22.79
2016-08-08T15:23:13.596Z,22.81
2016-08-08T15:24:26.587Z,22.85
2016-08-08T15:25:39.767Z,22.86
2016-08-08T15:26:52.751Z,22.82
2016-08-08T15:28:05.728Z,22.86
2016-08-08T15:29:18.727Z,22.85
2016-08-08T15:30:31.716Z,22.82
2016-08-08T15:31:44.700Z,22.82
2016-08-08T15:32:57.675Z,22.75
2016-08-08T15:34:10.652Z,22.61
2016-08-08T15:35:23.636Z,22.64
2016-08-08T15:36:36.621Z,22.63
2016-08-08T15:37:49.602Z,22.7
2016-08-08T15:39:02.591Z,22.64
2016-08-08T15:40:15.562Z,22.71
2016-08-08T15:41:28.537Z,22.75
2016-08-08T15:42:41.526Z,22.63
2016-08-08T15:43:54.506Z,22.61
2016-08-08T15:45:07.491Z,22.6
2016-08-08T15:46:20.873Z,22.61
2016-08-08T15:47:33.904Z,22.63
2016-08-08T15:48:46.884Z,22.52
2016-08-08T15:49:59.859Z,22.57
2016-08-08T15:51:13.041Z,22.48
2016-08-08T15:52:26.024Z,22.44
2016-08-08T15:53:39.009Z,22.48
2016-08-08T15:54:51.990Z,22.48
2016-08-08T15:56:05.362Z,22.54
2016-08-08T15:57:18.342Z,22.46
2016-08-08T15:58:31.323Z,22.51
2016-08-08T15:59:44.510Z,22.52